• UTC

LHBP 220130Z 32009KT CAVOK M00/M03 Q1014 R88/19//95 NOSIG        

LHDC 220115Z 35010KT 9999 BKN033 00/M00 Q1011 NOSIG        

LHKE 220115Z 31010KT 8000 SCT047 M02/M03 Q1013 NOSIG RMK BLU        

LHPA 220115Z 33008KT CAVOK M02/M05 Q1017 NOSIG RMK BLU        

LHPR 220115Z AUTO 30010KT CAVOK M02/M04 Q1017 RMK BLU        

LHSN 220115Z 34008KT CAVOK M01/M01 Q1012 NOSIG RMK BLU        

LHUD 220045Z 30012KT 9999 FEW026 BKN033 00/M01 Q1013